Photo de Laille
https://tgftp.nws.noaa.gov/data/observations/metar/stations/LFRN.TXT2021/07/27 19:00 LFRN 271900Z AUTO 04006KT 330V090 9999 BKN035/// BKN041/// BKN050/// ///TCU 19/17 Q1012 BECMG BKN030
Rennes
Orageux
Metar : 2021/07/27 19:00 LFRN 271900Z AUTO 04006KT 330V090 9999 BKN035/// BKN041/// BKN050/// ///TCU 19/17 Q1012 BECMG BKN030
Couverture nuageuse : Mostly Cloudy 3500 ft Mostly Cloudy 4100 ft Mostly Cloudy 5000 ft
Pression de 29.88 inHg (1012 hPa)
Humidité : 88%
Température : 66°F (19°C)
Vent de NE at 7 mph (11 km/h)
Visibilité : 6 miles (10 km)
Nantes
quelques nuages
Metar : 2021/07/27 19:00 LFRS 271900Z AUTO 26010KT 230V290 9999 FEW025 19/14 Q1013 NOSIG
Couverture nuageuse : Few Clouds 2500 ft
Traduc : Partly cloudy 700 ft
Pression de 29.91 inHg (1013 hPa)
Humidité : 73%
Température : 66°F (19°C)
Point de rosée : 57°F (14°C)
Vent de W at 12 mph (19 km/h)
Visibilité : 6 miles (10 km)
Lannion
nuageux
Metar : 2021/07/27 19:00 LFRO 271900Z AUTO 26015KT 9999 BKN041 BKN049 BKN070 17/13 Q1014
Couverture nuageuse : Mostly Cloudy 4100 ft Mostly Cloudy 4900 ft Mostly Cloudy 7000 ft
Traduc : Partly cloudy 700 ft
Pression de 29.94 inHg (1014 hPa)
Humidité : 77%
Température : 63°F (17°C)
Point de rosée : 55°F (13°C)
Vent de W at 17 mph (28 km/h)
Visibilité : 6 miles (10 km)
Dinard
nuageux
Metar : 2021/07/27 19:00 LFRD 271900Z AUTO 30007KT 9999 BKN042 BKN048 18/14 Q1012 NOSIG
Couverture nuageuse : Mostly Cloudy 4200 ft Mostly Cloudy 4800 ft
Traduc : Partly cloudy 700 ft
Pression de 29.88 inHg (1012 hPa)
Humidité : 78%
Température : 64°F (18°C)
Point de rosée : 57°F (14°C)
Vent de WNW at 8 mph (13 km/h)
Visibilité : 6 miles (10 km)
Brest
nuageux
Metar : 2021/07/27 19:00 LFRB 271900Z AUTO 28012KT 250V310 9999 BKN021 BKN033 BKN041 17/13 Q1013 TEMPO 4000 SHRA BKN014TCU
Couverture nuageuse : Mostly Cloudy 2100 ft Mostly Cloudy 3300 ft Mostly Cloudy 4100 ft
Traduc : Partly cloudy 700 ft
Pression de 29.91 inHg (1013 hPa)
Humidité : 77%
Température : 63°F (17°C)
Point de rosée : 55°F (13°C)
Vent de W at 14 mph (22 km/h)
Visibilité : 6 miles (10 km)
Quimper
partiellement nuageux
Metar : 2021/07/27 19:00 LFRQ 271900Z AUTO 30011KT 9999 SCT022 17/13 Q1014 NOSIG
Couverture nuageuse : Partly Cloudy 2200 ft
Traduc : Partly cloudy 700 ft
Pression de 29.94 inHg (1014 hPa)
Humidité : 77%
Température : 63°F (17°C)
Point de rosée : 55°F (13°C)
Vent de WNW at 13 mph (20 km/h)
Visibilité : 6 miles (10 km)
St Nazaire
Ciel dégagé
Metar : 2021/07/27 19:00 LFRZ 271900Z AUTO 27010KT CAVOK 19/14 Q1013 NOSIG
Couverture nuageuse :
Traduc : Partly cloudy 700 ft
Pression de 29.91 inHg (1013 hPa)
Humidité : 73%
Température : 66°F (19°C)
Point de rosée : 57°F (14°C)
Vent de W at 12 mph (19 km/h)
Visibilité : greater than 7 miles (10 km)
St Brieuc
Ciel dégagé
Metar : 2021/07/27 19:00 LFRT 271900Z AUTO 26012KT CAVOK 18/12 Q1012
Couverture nuageuse :
Traduc : Partly cloudy 700 ft
Pression de 29.88 inHg (1012 hPa)
Humidité : 68%
Température : 64°F (18°C)
Point de rosée : 54°F (12°C)
Vent de W at 14 mph (22 km/h)
Visibilité : greater than 7 miles (10 km)
Lorient
quelques nuages
Metar : 2021/07/27 19:00 LFRH 271900Z AUTO 26008KT 9999 FEW049 18/13 Q1013 NOSIG
Couverture nuageuse : Few Clouds 4900 ft
Traduc : Partly cloudy 700 ft
Pression de 29.91 inHg (1013 hPa)
Humidité : 73%
Température : 64°F (18°C)
Point de rosée : 55°F (13°C)
Vent de W at 9 mph (15 km/h)
Visibilité : 6 miles (10 km)
Vannes-Meucon
Ciel dégagé
Metar : 2021/07/27 19:00 LFRV 271900Z AUTO 27008KT 240V300 CAVOK 18/14 Q1013
Couverture nuageuse :
Traduc : Partly cloudy 700 ft
Pression de 29.91 inHg (1013 hPa)
Humidité : 78%
Température : 64°F (18°C)
Point de rosée : 57°F (14°C)
Vent de W at 9 mph (15 km/h)
Visibilité : greater than 7 miles (10 km)

 


   Weather Underground PWS IBRETAGN39      Weather Underground PWS IBRETAGN39Retour Météo-Laillé adhérent de Météo-Bretagne et d'Infoclimat. Données mises à jour en temps réel via Météolink Climatologie réalisée sous Wswin et GraphWeather.

Affichage prévisions météo de WeatherUnderground via script PHP de Saratoga.

Copyright 2012-2021


compteur